Dassault Systemes SA Debt to Equity Ratio 2010-2023 | DASTY

Current and historical debt to equity ratio values for Dassault Systemes SA (DASTY) over the last 10 years. The debt/equity ratio can be defined as a measure of a company's financial leverage calculated by dividing its long-term debt by stockholders' equity. Dassault Systemes SA debt/equity for the three months ending September 30, 2023 was 0.26.
Dassault Systemes SA Debt/Equity Ratio Historical Data
Date Long Term Debt Shareholder's Equity Debt to Equity Ratio
2023-09-30 $7.27B $8.46B 0.86
2023-06-30 $7.35B $8.17B 0.90
2023-03-31 $7.37B $8.03B 0.92
2022-09-30 $6.93B $7.88B 0.88
2022-03-31 $8.60B $7.39B 1.16
2021-12-31 $9.47B $7.35B 1.29
2021-09-30 $8.74B $7.03B 1.24
2021-06-30 $9.56B $6.69B 1.43
2021-03-31 $9.68B $6.77B 1.43
2020-12-31 $8.98B $5.83B 1.54
2020-09-30 $9.55B $6.09B 1.57
2020-06-30 $9.30B $5.91B 1.57
2020-03-31 $9.48B $6.03B 1.57
2019-12-31 $9.64B $5.89B 1.64
2019-09-30 $7.12B $5.83B 1.22
2019-06-30 $4.35B $5.46B 0.80
2019-03-31 $4.34B $5.55B 0.78
2018-12-31 $3.95B $5.46B 0.72
2018-09-30 $3.60B $5.09B 0.71
2018-06-30 $3.73B $5.21B 0.72
2018-03-31 $3.79B $5.01B 0.76
2017-12-31 $3.43B $4.52B 0.76
2017-09-30 $3.40B $4.54B 0.75
2017-06-30 $3.42B $4.17B 0.82
2017-03-31 $3.42B $4.18B 0.82
2016-12-31 $3.39B $4.30B 0.79
2016-09-30 $3.28B $4.08B 0.80
2016-06-30 $3.36B $3.98B 0.84
2016-03-31 $3.14B $3.84B 0.82
2015-12-31 $3.14B $3.87B 0.81
2015-09-30 $2.26B $3.66B 0.62
2015-06-30 $2.36B $3.55B 0.66
2015-03-31 $2.51B $3.68B 0.68
2014-12-31 $2.67B $3.93B 0.68
2014-09-30 $2.55B $3.76B 0.68
2014-06-30 $2.53B $3.64B 0.70
2014-03-31 $2.33B $3.63B 0.64
2013-12-31 $2.08B $3.49B 0.60
2013-09-30 $2.05B $3.42B 0.60
2013-06-30 $2.16B $3.30B 0.66
2013-03-31 $1.75B $3.29B 0.53
2012-12-31 $1.57B $3.06B 0.51
2012-09-30 $1.83B $2.85B 0.64
2012-06-30 $1.91B $2.83B 0.67
2012-03-31 $1.88B $2.86B 0.66
2011-12-31 $2.00B $2.90B 0.69
2011-09-30 $1.91B $2.70B 0.71
2011-06-30 $1.88B $2.57B 0.73
2011-03-31 $1.76B $2.49B 0.71
2010-12-31 $1.70B $2.38B 0.72
2010-09-30 $1.63B $2.09B 0.78
2010-06-30 $1.72B $2.13B 0.81
2010-03-31 $1.41B $2.16B 0.65
2009-12-31 $1.19B $2.02B 0.59
2009-09-30 $1.15B $1.90B 0.60
2009-06-30 $1.11B $1.79B 0.62
2009-03-31 $1.09B $1.81B 0.60
Sector Industry Market Cap Revenue
Computer and Technology Computer Software $55.184B $6.441B
Dassault Systemes is a worldwide recognized leader in CAD/CAM/CAE and PDM II markets. The company's mission to provide solutions to enable customersto build their digital enterprise, by defining, simulating, managing and optimizing concurrently product, manufacturing process, and resources. In this virtual space, customers create innovative, high quality, safe and affordable products. The company delivers scaleable process and design-centric solutions on both Unix and Windows NT environments.
Stock Name Country Market Cap PE Ratio
Microsoft (MSFT) United States $3161.257B 36.83
Oracle (ORCL) United States $342.243B 27.86
Salesforce (CRM) United States $277.884B 46.45
Adobe (ADBE) United States $217.141B 36.31
Intuit (INTU) United States $187.642B 62.92
Synopsys (SNPS) United States $87.593B 63.19
Cadence Design Systems (CDNS) United States $79.591B 75.77
Autodesk (ADSK) United States $47.706B 46.61
MicroStrategy (MSTR) United States $30.637B 0.00
ANSYS (ANSS) United States $28.686B 53.08
PTC (PTC) United States $22.025B 58.41
SS&C Technologies Holdings (SSNC) United States $15.695B 14.86
Manhattan Associates (MANH) United States $14.200B 75.37
Open Text (OTEX) Canada $8.494B 8.55
Descartes Systems Group (DSGX) Canada $8.478B 74.21
Trend Micro (TMICY) Japan $6.723B 48.69
Pegasystems (PEGA) United States $5.453B 48.22
CommVault Systems (CVLT) United States $4.798B 78.41
Blackbaud (BLKB) United States $4.109B 35.38
ACI Worldwide (ACIW) United States $3.962B 18.83
Progress Software (PRGS) United States $2.232B 14.19
Verint Systems (VRNT) United States $2.014B 18.77
Sapiens (SPNS) Israel $1.910B 26.04
BlackBerry (BB) Canada $1.776B 0.00
PROS Holdings (PRO) United States $1.524B 0.00
Simulations Plus (SLP) United States $1.000B 73.59
Rand Worldwide (RWWI) United States $0.652B 0.00
Magic Software Enterprises (MGIC) Israel $0.563B 11.94
American Software (AMSWA) United States $0.349B 29.22
Canaan (CAN) China $0.285B 0.00
OptimizeRx (OPRX) United States $0.239B 0.00
Rigetti Computing (RGTI) United States $0.180B 0.00
Icad Inc (ICAD) United States $0.044B 0.00
Neonode (NEON) Sweden $0.036B 0.00
NetSol Technologies (NTWK) United States $0.031B 0.00
Smith Micro Software (SMSI) United States $0.027B 0.00
Wetouch Technology (WETH) $0.024B 0.00
Hanryu Holdings (HRYU) South Korea $0.023B 0.00
GSE Systems (GVP) United States $0.011B 0.00
SAP SE (SAP) Germany $0.000B 49.95